BGBWCYYR

Guest
Details From BGBW - Narsarsuaq
To CYYR - Goose Bay
Flight Number -
Tags decoded
Created
Modified
Stats Distance 705 nm / 1,306 km
Max Altitude 0 ft / 0 m
Waypoints 3
Social Downloads 2
Likes 0
Share VATSIM

Download

Looking for another format? Having issues loading an existing format? Contact us
Advertisement - Login to hide

Notes

Requested: BGBW HO CYYR

Route

BGBW HO CYYR

ID Type Via Altitude Latitude Longitude Leg Dist Tot Dist Heading (true) Name
O BGBW APT - 0 ft / 0 m 61.16052˚ -45.42598˚ - 0 nm - Narsarsuaq
HO NDB - 0 ft / 0 m 55.45750˚ -60.20917˚ 576 nm 576 nm 240° / 228° HOPEDALE NDB
O CYYR APT - 0 ft / 0 m 53.31882˚ -60.42389˚ 128 nm 705 nm 183° / 183° Goose Bay

Altitude Profile

Advertisement - Login to hide

Weather


0- 5 10 15 20 25 30 35+ Temperature / ° C

Clouds and Precipitation
Forecast for 2017-12-18 18:00 UTC. Updated 2 hours ago

Ground ~20,000 ft ~40,000 ft Winds

BGBW

Details ICAO BGBW (UAK)
Name Narsarsuaq
Region Greenland
Timezone America/Godthab (UTC-3.0)
Stats Elevation 112 ft / 34 m (AMSL)
Location 61.160516° -45.425976°
Runways 1
Magnetic Variation 22.902° W

METAR

BGBW 181850Z 21013KT 3000 -FZDZRA VCSH SCT007 BKN010 BKN013 M03/M06 Q0979

Decode

TAF

Not found

Departure Runways

ID Width Length Bearing (true) Bearing (mag) Surface Threshold Offset Overrun Length
07 148 ft / 45 m 5,921 ft / 1,805 m 40.57° 63.47° Concrete 0 ft / 0 m 0 ft / 0 m
25 148 ft / 45 m 5,921 ft / 1,805 m 220.58° 243.48° Concrete 0 ft / 0 m 279 ft / 85 m

CYYR

Details ICAO CYYR (YYR)
Name Goose Bay
Region Canada
Timezone America/Goose_Bay (UTC-4.0)
Stats Elevation 160 ft / 49 m (AMSL)
Location 53.318820° -60.423890°
Runways 2
Magnetic Variation 20.961° W

METAR

CYYR 181900Z 26004KT 15SM BKN088 M18/M26 A2978 RMK AS7 SLP089

Decode

TAF

TAF CYYR 181730Z 1818/1918 26018G28KT P6SM FEW150 FM182000 25012G22KT P6SM BKN050 TEMPO 1820/1906 P6SM -SN OVC040 BECMG 1822/1824 25010KT FM190600 21005KT P6SM BKN060 RMK NXT FCST BY 190000Z

Decode

Destination Runways

ID Width Length Bearing (true) Bearing (mag) Surface Threshold Offset Overrun Length
08 209 ft / 64 m 11,055 ft / 3,369 m 54.70° 75.66° Asphalt 0 ft / 0 m 1,000 ft / 305 m
16 200 ft / 61 m 9,515 ft / 2,900 m 132.96° 153.92° Asphalt 0 ft / 0 m 0 ft / 0 m
26 209 ft / 64 m 11,055 ft / 3,369 m 234.73° 255.69° Asphalt 0 ft / 0 m 1,000 ft / 305 m
34 200 ft / 61 m 9,515 ft / 2,900 m 312.99° 333.95° Asphalt 0 ft / 0 m 500 ft / 152 m

Popular Alternatives